Time;durP1;ratioP1;P1;durP2;ratioP2;P2;SDS_P1;SDS_P2;PMS_P1;PMS_P2;Temp;Humidity;BMP_temperature;BMP_pressure;BME280_temperature;BME280_humidity;BME280_pressure;Samples;Min_cycle;Max_cycle;Signal;HPM_P1;HPM_P2
2022/05/20 00:00:16;;;;;;;;;;;;;;;;;;4967475;28;19918;-82
2022/05/20 00:02:42;;;;;;;;;;;;;;;;;;4966962;28;20009;-83
2022/05/20 00:05:07;;;;;;;;;;;;;;;;;;4984124;28;20424;-82
2022/05/20 00:07:32;;;;;;;;;;;;;;;;;;4968137;28;20342;-82
2022/05/20 00:09:58;;;;;;;;;;;;;;;;;;4983916;28;19918;-82
2022/05/20 00:12:23;;;;;;;;;;;;;;;;;;4984041;28;19925;-82
2022/05/20 00:14:49;;;;;;;;;;;;;;;;;;4967009;28;19918;-82
2022/05/20 00:17:14;;;;;;;;;;;;;;;;;;5008795;28;19923;-83
2022/05/20 00:19:40;;;;;;;;;;;;;;;;;;4982332;28;19941;-83
2022/05/20 00:22:06;;;;;;;;;;;;;;;;;;4983418;28;20379;-82
2022/05/20 00:24:32;;;;;;;;;;;;;;;;;;4967027;28;19921;-82
2022/05/20 00:26:57;;;;;;;;;;;;;;;;;;4966561;28;20016;-82
2022/05/20 00:29:23;;;;;;;;;;;;;;;;;;4966841;28;19945;-82
2022/05/20 00:31:49;;;;;;;;;;;;;;;;;;4982882;28;19918;-82
2022/05/20 00:34:14;;;;;;;;;;;;;;;;;;4999212;28;19922;-82
2022/05/20 00:36:39;;;;;;;;;;;;;;;;;;4964810;28;19961;-82
2022/05/20 00:39:05;;;;;;;;;;;;;;;;;;4998870;28;19941;-82
2022/05/20 00:41:30;;;;;;;;;;;;;;;;;;4966053;28;19917;-82
2022/05/20 00:43:56;;;;;;;;;;;;;;;;;;4965884;28;19917;-81
2022/05/20 00:46:22;;;;;;;;;;;;;;;;;;4965803;28;19937;-81
2022/05/20 00:49:00;;;;;;;;;;;;;;;;;;4982472;28;19917;-82
2022/05/20 00:51:37;;;;;;;;;;;;;;;;;;4966399;28;19972;-82
2022/05/20 00:54:05;;;;;;;;;;;;;;;;;;4986153;28;19925;-82
2022/05/20 00:56:38;;;;;;;;;;;;;;;;;;4985716;28;19918;-82
2022/05/20 00:59:04;;;;;;;;;;;;;;;;;;4984483;28;19952;-82
2022/05/20 01:01:30;;;;;;;;;;;;;;;;;;4984324;28;20044;-82
2022/05/20 01:03:56;;;;;;;;;;;;;;;;;;4984691;28;19917;-82
2022/05/20 01:06:35;;;;;;;;;;;;;;;;;;4985292;28;19926;-82
2022/05/20 01:09:00;;;;;;;;;;;;;;;;;;5000878;28;20012;-82
2022/05/20 01:11:25;;;;;;;;;;;;;;;;;;4999479;28;19967;-82
2022/05/20 01:13:51;;;;;;;;;;;;;;;;;;4983427;28;19918;-82
2022/05/20 01:16:17;;;;;;;;;;;;;;;;;;4983558;28;19917;-82
2022/05/20 01:18:44;;;;;;;;;;;;;;;;;;4983534;28;19917;-82
2022/05/20 01:21:17;;;;;;;;;;;;;;;;;;4985062;28;19917;-82
2022/05/20 01:23:42;;;;;;;;;;;;;;;;;;5001362;28;19921;-81
2022/05/20 01:26:08;;;;;;;;;;;;;;;;;;5000722;28;19922;-81
2022/05/20 01:28:34;;;;;;;;;;;;;;;;;;5000688;28;19959;-81
2022/05/20 01:31:01;;;;;;;;;;;;;;;;;;5018364;28;19917;-81
2022/05/20 01:33:43;;;;;;;;;;;;;;;;;;5000500;28;19924;-81
2022/05/20 01:36:10;;;;;;;;;;;;;;;;;;5000413;28;20067;-81
2022/05/20 01:38:39;;;;;;;;;;;;;;;;;;4984850;28;19940;-81
2022/05/20 01:41:10;;;;;;;;;;;;;;;;;;5000318;28;19924;-81
2022/05/20 01:43:51;;;;;;;;;;;;;;;;;;5001134;28;19918;-81
2022/05/20 01:46:36;;;;;;;;;;;;;;;;;;5014202;28;20036;-81
2022/05/20 01:49:20;;;;;;;;;;;;;;;;;;4998201;28;20315;-81
2022/05/20 01:51:49;;;;;;;;;;;;;;;;;;4999873;28;19957;-81
2022/05/20 01:54:19;;;;;;;;;;;;;;;;;;5007706;28;20429;-81
2022/05/20 01:56:49;;;;;;;;;;;;;;;;;;5000099;28;19917;-81
2022/05/20 01:59:15;;;;;;;;;;;;;;;;;;5000607;28;20299;-81
2022/05/20 02:01:44;;;;;;;;;;;;;;;;;;5017663;28;19923;-80
2022/05/20 02:04:12;;;;;;;;;;;;;;;;;;5017718;28;19963;-81
2022/05/20 02:06:49;;;;;;;;;;;;;;;;;;5001147;28;20295;-81
2022/05/20 02:09:25;;;;;;;;;;;;;;;;;;5017259;28;20001;-81
2022/05/20 02:11:52;;;;;;;;;;;;;;;;;;5002646;28;19917;-82
2022/05/20 02:14:22;;;;;;;;;;;;;;;;;;5001226;28;20342;-84
2022/05/20 02:16:53;;;;;;;;;;;;;;;;;;5000029;28;20386;-81
2022/05/20 02:19:24;;;;;;;;;;;;;;;;;;5000329;28;19917;-79
2022/05/20 02:21:53;;;;;;;;;;;;;;;;;;5015612;28;19917;-79
2022/05/20 02:24:21;;;;;;;;;;;;;;;;;;4993437;28;19918;-83
2022/05/20 02:26:53;;;;;;;;;;;;;;;;;;4998061;28;20426;-80
2022/05/20 02:29:20;;;;;;;;;;;;;;;;;;5000564;28;19918;-83
2022/05/20 02:31:49;;;;;;;;;;;;;;;;;;5017054;28;19917;-79
2022/05/20 02:34:14;;;;;;;;;;;;;;;;;;5004132;28;20056;-80
2022/05/20 02:36:40;;;;;;;;;;;;;;;;;;5022122;28;20406;-81
2022/05/20 02:39:14;;;;;;;;;;;;;;;;;;5007167;28;19924;-81
2022/05/20 02:41:42;;;;;;;;;;;;;;;;;;5007417;28;19986;-81
2022/05/20 02:44:08;;;;;;;;;;;;;;;;;;5023588;28;19960;-81
2022/05/20 02:46:34;;;;;;;;;;;;;;;;;;5005480;28;19924;-79
2022/05/20 02:48:59;;;;;;;;;;;;;;;;;;5016515;28;19922;-83
2022/05/20 02:51:24;;;;;;;;;;;;;;;;;;5003416;28;19923;-82
2022/05/20 02:53:50;;;;;;;;;;;;;;;;;;5003612;28;19921;-80
2022/05/20 02:56:15;;;;;;;;;;;;;;;;;;5017797;28;19968;-79
2022/05/20 03:04:12;;;;;;;;;;;;;;;;;;5036315;28;20008;-77
2022/05/20 03:06:40;;;;;;;;;;;;;;;;;;5029629;28;19947;-78
2022/05/20 03:09:09;;;;;;;;;;;;;;;;;;5033710;28;20303;-78
2022/05/20 03:11:35;;;;;;;;;;;;;;;;;;5011481;28;19963;-78
2022/05/20 03:14:01;;;;;;;;;;;;;;;;;;5017024;28;19917;-78
2022/05/20 03:16:27;;;;;;;;;;;;;;;;;;5034481;28;19920;-77
2022/05/20 03:18:52;;;;;;;;;;;;;;;;;;5029204;28;19924;-78
2022/05/20 03:21:18;;;;;;;;;;;;;;;;;;5033729;28;20321;-78
2022/05/20 03:23:43;;;;;;;;;;;;;;;;;;5010157;28;20291;-78
2022/05/20 03:26:08;;;;;;;;;;;;;;;;;;5033327;28;20318;-78
2022/05/20 03:28:34;;;;;;;;;;;;;;;;;;5010956;28;19916;-77
2022/05/20 03:31:07;;;;;;;;;;;;;;;;;;5024752;28;20318;-77
2022/05/20 03:33:33;;;;;;;;;;;;;;;;;;5007574;28;19956;-77
2022/05/20 03:35:59;;;;;;;;;;;;;;;;;;4997282;28;19917;-77
2022/05/20 03:38:24;;;;;;;;;;;;;;;;;;5008128;28;19917;-77
2022/05/20 03:40:50;;;;;;;;;;;;;;;;;;5016329;28;19918;-77
2022/05/20 03:43:15;;;;;;;;;;;;;;;;;;5015312;28;19957;-77
2022/05/20 03:45:42;;;;;;;;;;;;;;;;;;5010259;28;19922;-77
2022/05/20 03:48:08;;;;;;;;;;;;;;;;;;5004527;28;19957;-77
2022/05/20 03:50:33;;;;;;;;;;;;;;;;;;4989588;28;19917;-77
2022/05/20 03:52:59;;;;;;;;;;;;;;;;;;5011614;28;19950;-77
2022/05/20 03:55:25;;;;;;;;;;;;;;;;;;4988506;28;19925;-77
2022/05/20 03:57:51;;;;;;;;;;;;;;;;;;4995490;28;20241;-77
2022/05/20 04:00:17;;;;;;;;;;;;;;;;;;4995128;28;19977;-77
2022/05/20 04:02:42;;;;;;;;;;;;;;;;;;4995385;28;19921;-77
2022/05/20 04:05:08;;;;;;;;;;;;;;;;;;4995298;28;19921;-77
2022/05/20 04:07:34;;;;;;;;;;;;;;;;;;4973321;28;19918;-77
2022/05/20 04:09:59;;;;;;;;;;;;;;;;;;4995417;28;19964;-77
2022/05/20 04:12:34;;;;;;;;;;;;;;;;;;4971874;28;19945;-77
2022/05/20 04:15:01;;;;;;;;;;;;;;;;;;4994943;28;19918;-77
2022/05/20 04:17:26;;;;;;;;;;;;;;;;;;4996004;28;19924;-77
2022/05/20 04:19:52;;;;;;;;;;;;;;;;;;4975546;28;19922;-76
2022/05/20 04:22:25;;;;;;;;;;;;;;;;;;4986939;28;19918;-77
2022/05/20 04:24:51;;;;;;;;;;;;;;;;;;4978541;28;19922;-77
2022/05/20 04:27:16;;;;;;;;;;;;;;;;;;4994784;28;19925;-77
2022/05/20 04:29:42;;;;;;;;;;;;;;;;;;4978255;28;20005;-77
2022/05/20 04:32:08;;;;;;;;;;;;;;;;;;4996014;28;19921;-77
2022/05/20 04:34:33;;;;;;;;;;;;;;;;;;5025054;28;19926;-77
2022/05/20 04:36:59;;;;;;;;;;;;;;;;;;4997692;28;20040;-77
2022/05/20 04:39:24;;;;;;;;;;;;;;;;;;5007269;28;20414;-77
2022/05/20 04:47:21;;;;;;;;;;;;;;;;;;5015157;28;19921;-77
2022/05/20 04:49:47;;;;;;;;;;;;;;;;;;5025549;28;20341;-77
2022/05/20 04:52:12;;;;;;;;;;;;;;;;;;5014684;28;20044;-78
2022/05/20 04:54:50;;;;;;;;;;;;;;;;;;4978085;28;20296;-77
2022/05/20 04:57:29;;;;;;;;;;;;;;;;;;4995065;28;20376;-77
2022/05/20 04:59:59;;;;;;;;;;;;;;;;;;4962090;28;19925;-76
2022/05/20 05:02:25;;;;;;;;;;;;;;;;;;4961897;28;19953;-77
2022/05/20 05:04:50;;;;;;;;;;;;;;;;;;4994077;28;19968;-77
2022/05/20 05:07:15;;;;;;;;;;;;;;;;;;4974941;28;19976;-77
2022/05/20 05:09:41;;;;;;;;;;;;;;;;;;4975819;28;19972;-77
2022/05/20 05:12:08;;;;;;;;;;;;;;;;;;4974649;28;20381;-77
2022/05/20 05:14:43;;;;;;;;;;;;;;;;;;4990713;28;20334;-77
2022/05/20 05:17:09;;;;;;;;;;;;;;;;;;4958461;28;19918;-77
2022/05/20 05:19:36;;;;;;;;;;;;;;;;;;4974603;28;19968;-77
2022/05/20 05:22:01;;;;;;;;;;;;;;;;;;4975532;28;19918;-77
2022/05/20 05:24:27;;;;;;;;;;;;;;;;;;4942251;28;19918;-77
2022/05/20 05:26:52;;;;;;;;;;;;;;;;;;4974419;28;20339;-77
2022/05/20 05:29:17;;;;;;;;;;;;;;;;;;4975595;28;20360;-77
2022/05/20 05:31:43;;;;;;;;;;;;;;;;;;4975498;28;19918;-77
2022/05/20 05:34:10;;;;;;;;;;;;;;;;;;4961594;28;20016;-77
2022/05/20 05:36:35;;;;;;;;;;;;;;;;;;4977468;28;19996;-77
2022/05/20 05:39:01;;;;;;;;;;;;;;;;;;4977776;28;19961;-77
2022/05/20 05:41:26;;;;;;;;;;;;;;;;;;4994783;28;20367;-77
2022/05/20 05:43:52;;;;;;;;;;;;;;;;;;4961617;28;19921;-77
2022/05/20 05:46:18;;;;;;;;;;;;;;;;;;4961459;28;19922;-77
2022/05/20 05:48:43;;;;;;;;;;;;;;;;;;4960858;28;19914;-78
2022/05/20 05:51:08;;;;;;;;;;;;;;;;;;4993916;28;20279;-77
2022/05/20 05:53:34;;;;;;;;;;;;;;;;;;4976820;28;19921;-78
2022/05/20 05:56:00;;;;;;;;;;;;;;;;;;4994453;28;19922;-77
2022/05/20 05:58:26;;;;;;;;;;;;;;;;;;4977166;28;19925;-77
2022/05/20 06:00:53;;;;;;;;;;;;;;;;;;4995098;28;20371;-77
2022/05/20 06:03:18;;;;;;;;;;;;;;;;;;4998800;28;20364;-77
2022/05/20 06:05:44;;;;;;;;;;;;;;;;;;4948751;28;19928;-77
2022/05/20 06:08:10;;;;;;;;;;;;;;;;;;4979106;28;19926;-77
2022/05/20 06:10:35;;;;;;;;;;;;;;;;;;4979306;28;19918;-77
2022/05/20 06:13:00;;;;;;;;;;;;;;;;;;4978697;28;19918;-78
2022/05/20 06:15:26;;;;;;;;;;;;;;;;;;4991863;28;19918;-77
2022/05/20 06:17:52;;;;;;;;;;;;;;;;;;4964889;28;19968;-77
2022/05/20 06:20:18;;;;;;;;;;;;;;;;;;4998335;28;19917;-77
2022/05/20 06:22:44;;;;;;;;;;;;;;;;;;4965251;28;20311;-77
2022/05/20 06:25:10;;;;;;;;;;;;;;;;;;4998383;28;19922;-77
2022/05/20 06:27:38;;;;;;;;;;;;;;;;;;4965306;28;19917;-77
2022/05/20 06:30:06;;;;;;;;;;;;;;;;;;4980769;28;20379;-77
2022/05/20 06:32:32;;;;;;;;;;;;;;;;;;4964732;28;19918;-77
2022/05/20 06:40:25;;;;;;;;;;;;;;;;;;4980318;28;20021;-78
2022/05/20 06:42:50;;;;;;;;;;;;;;;;;;4980568;28;19956;-78
2022/05/20 06:45:16;;;;;;;;;;;;;;;;;;4980803;28;20304;-77
2022/05/20 06:47:42;;;;;;;;;;;;;;;;;;4964653;28;19918;-77
2022/05/20 06:50:08;;;;;;;;;;;;;;;;;;4980634;28;20371;-77
2022/05/20 06:52:33;;;;;;;;;;;;;;;;;;5000338;28;19922;-77
2022/05/20 06:54:59;;;;;;;;;;;;;;;;;;4984706;28;19960;-78
2022/05/20 06:57:24;;;;;;;;;;;;;;;;;;4999743;28;20374;-77
2022/05/20 06:59:50;;;;;;;;;;;;;;;;;;5000381;28;19923;-77
2022/05/20 07:02:15;;;;;;;;;;;;;;;;;;5017999;28;20322;-78
2022/05/20 07:04:41;;;;;;;;;;;;;;;;;;5017291;28;19917;-77
2022/05/20 07:07:06;;;;;;;;;;;;;;;;;;4980910;28;19984;-79
2022/05/20 07:09:32;;;;;;;;;;;;;;;;;;4983577;28;19918;-77
2022/05/20 07:11:57;;;;;;;;;;;;;;;;;;5002559;28;20016;-78
2022/05/20 07:14:23;;;;;;;;;;;;;;;;;;4985093;28;19921;-77
2022/05/20 07:16:48;;;;;;;;;;;;;;;;;;4984270;28;19917;-77
2022/05/20 07:19:14;;;;;;;;;;;;;;;;;;5026473;28;20283;-83
2022/05/20 07:21:40;;;;;;;;;;;;;;;;;;4993969;28;19918;-83
2022/05/20 07:24:05;;;;;;;;;;;;;;;;;;4990166;28;19925;-82
2022/05/20 07:26:31;;;;;;;;;;;;;;;;;;5010349;28;19928;-86
2022/05/20 07:28:57;;;;;;;;;;;;;;;;;;4982123;28;19972;-87
2022/05/20 07:31:24;;;;;;;;;;;;;;;;;;4996442;28;20011;-85
2022/05/20 07:33:50;;;;;;;;;;;;;;;;;;5006141;28;19924;-86
2022/05/20 07:36:16;;;;;;;;;;;;;;;;;;4990259;28;20278;-79
2022/05/20 07:38:42;;;;;;;;;;;;;;;;;;5007836;28;19924;-80
2022/05/20 07:41:07;;;;;;;;;;;;;;;;;;4991288;28;19953;-80
2022/05/20 07:43:33;;;;;;;;;;;;;;;;;;5025561;28;19924;-80
2022/05/20 07:45:58;;;;;;;;;;;;;;;;;;4991131;28;20303;-80
2022/05/20 07:48:24;;;;;;;;;;;;;;;;;;4989847;28;19978;-80
2022/05/20 07:50:55;;;;;;;;;;;;;;;;;;5006934;28;19917;-80
2022/05/20 07:53:21;;;;;;;;;;;;;;;;;;4990353;28;19937;-80
2022/05/20 07:56:06;;;;;;;;;;;;;;;;;;5035764;28;19917;-79
2022/05/20 07:58:34;;;;;;;;;;;;;;;;;;5040762;28;19923;-79
2022/05/20 08:01:01;;;;;;;;;;;;;;;;;;5021481;28;19924;-81
2022/05/20 08:06:12;;;;;;;;;;;;;;;;;;5019442;28;19929;-80
2022/05/20 08:08:37;;;;;;;;;;;;;;;;;;5016792;28;19933;-79
2022/05/20 08:11:03;;;;;;;;;;;;;;;;;;5045591;28;19917;-80
2022/05/20 08:13:28;;;;;;;;;;;;;;;;;;5046758;28;19917;-80
2022/05/20 08:15:53;;;;;;;;;;;;;;;;;;5027993;28;19917;-80
2022/05/20 08:18:19;;;;;;;;;;;;;;;;;;5021488;28;19917;-80
2022/05/20 08:20:44;;;;;;;;;;;;;;;;;;5022794;28;19944;-80
2022/05/20 08:23:10;;;;;;;;;;;;;;;;;;5012047;28;19924;-80
2022/05/20 08:25:36;;;;;;;;;;;;;;;;;;5021786;28;20295;-80
2022/05/20 08:28:02;;;;;;;;;;;;;;;;;;5034549;28;19924;-80
2022/05/20 08:30:28;;;;;;;;;;;;;;;;;;5028487;28;19917;-80
2022/05/20 08:32:53;;;;;;;;;;;;;;;;;;5027340;28;19921;-80
2022/05/20 08:35:20;;;;;;;;;;;;;;;;;;5027846;28;20402;-80
2022/05/20 08:37:47;;;;;;;;;;;;;;;;;;5036596;28;20004;-80
2022/05/20 08:40:20;;;;;;;;;;;;;;;;;;5004949;28;19921;-80
2022/05/20 08:42:46;;;;;;;;;;;;;;;;;;4988988;28;20010;-80
2022/05/20 08:45:14;;;;;;;;;;;;;;;;;;5028507;28;19929;-80
2022/05/20 08:47:44;;;;;;;;;;;;;;;;;;5045890;28;19924;-80
2022/05/20 08:50:13;;;;;;;;;;;;;;;;;;5010451;28;19944;-80
2022/05/20 08:52:38;;;;;;;;;;;;;;;;;;5007820;28;19921;-80
2022/05/20 08:55:05;;;;;;;;;;;;;;;;;;5026834;28;20199;-80
2022/05/20 08:57:34;;;;;;;;;;;;;;;;;;5017238;28;19968;-80
2022/05/20 09:00:01;;;;;;;;;;;;;;;;;;5002784;28;19921;-80
2022/05/20 09:02:26;;;;;;;;;;;;;;;;;;5003307;28;19917;-80
2022/05/20 09:04:51;;;;;;;;;;;;;;;;;;5011116;28;20375;-80
2022/05/20 09:07:18;;;;;;;;;;;;;;;;;;5022023;28;20394;-80
2022/05/20 09:09:46;;;;;;;;;;;;;;;;;;5000623;28;19925;-79
2022/05/20 09:12:24;;;;;;;;;;;;;;;;;;5007905;28;19928;-80
2022/05/20 09:17:42;;;;;;;;;;;;;;;;;;5019072;28;20283;-80
2022/05/20 09:20:10;;;;;;;;;;;;;;;;;;5007134;28;19918;-79
2022/05/20 09:22:37;;;;;;;;;;;;;;;;;;5017574;28;20366;-80
2022/05/20 09:25:04;;;;;;;;;;;;;;;;;;5007715;28;19922;-80
2022/05/20 09:27:35;;;;;;;;;;;;;;;;;;5016830;28;19964;-80
2022/05/20 09:30:01;;;;;;;;;;;;;;;;;;5004423;28;19960;-80
2022/05/20 09:32:35;;;;;;;;;;;;;;;;;;5007696;28;19921;-80
2022/05/20 09:35:03;;;;;;;;;;;;;;;;;;5019488;28;19917;-80
2022/05/20 09:37:30;;;;;;;;;;;;;;;;;;5013888;28;19918;-80
2022/05/20 09:39:55;;;;;;;;;;;;;;;;;;5018235;28;20012;-80
2022/05/20 09:42:22;;;;;;;;;;;;;;;;;;5001846;28;19960;-80
2022/05/20 09:44:49;;;;;;;;;;;;;;;;;;5015403;28;20459;-80
2022/05/20 09:47:31;;;;;;;;;;;;;;;;;;5003894;28;20376;-80
2022/05/20 09:50:03;;;;;;;;;;;;;;;;;;5015863;28;19941;-81
2022/05/20 09:52:48;;;;;;;;;;;;;;;;;;5013089;28;19925;-81
2022/05/20 09:55:13;;;;;;;;;;;;;;;;;;5000365;28;19921;-83
2022/05/20 09:57:40;;;;;;;;;;;;;;;;;;4998824;28;19918;-82
2022/05/20 10:00:17;;;;;;;;;;;;;;;;;;4984406;28;19917;-81
2022/05/20 10:02:50;;;;;;;;;;;;;;;;;;5002195;28;19921;-81
2022/05/20 10:05:22;;;;;;;;;;;;;;;;;;5020090;28;19976;-80
2022/05/20 10:07:53;;;;;;;;;;;;;;;;;;5009906;28;19918;-81
2022/05/20 10:10:29;;;;;;;;;;;;;;;;;;5019833;28;19917;-81
2022/05/20 10:12:56;;;;;;;;;;;;;;;;;;5002712;28;19953;-83
2022/05/20 10:15:24;;;;;;;;;;;;;;;;;;4985044;28;19949;-83
2022/05/20 10:17:49;;;;;;;;;;;;;;;;;;4986052;28;19918;-83
2022/05/20 10:20:35;;;;;;;;;;;;;;;;;;4986867;28;19925;-82
2022/05/20 10:23:19;;;;;;;;;;;;;;;;;;4967208;28;19957;-84
2022/05/20 10:25:50;;;;;;;;;;;;;;;;;;4969182;28;19929;-81
2022/05/20 10:34:00;;;;;;;;;;;;;;;;;;4982110;28;19918;-81
2022/05/20 10:36:33;;;;;;;;;;;;;;;;;;4982903;28;20064;-84
2022/05/20 10:39:08;;;;;;;;;;;;;;;;;;4981513;28;19972;-81
2022/05/20 10:41:43;;;;;;;;;;;;;;;;;;4999722;28;19918;-82
2022/05/20 10:50:07;;;;;;;;;;;;;;;;;;4986712;28;19918;-80
2022/05/20 10:52:40;;;;;;;;;;;;;;;;;;5003965;28;19930;-79
2022/05/20 10:55:31;;;;;;;;;;;;;;;;;;4987947;28;19980;-81
2022/05/20 10:58:15;;;;;;;;;;;;;;;;;;4989813;28;19917;-81
2022/05/20 11:00:41;;;;;;;;;;;;;;;;;;4982168;28;19917;-80
2022/05/20 11:03:06;;;;;;;;;;;;;;;;;;5005849;28;19929;-81
2022/05/20 11:05:32;;;;;;;;;;;;;;;;;;5006344;28;19928;-81
2022/05/20 11:08:03;;;;;;;;;;;;;;;;;;5004014;28;19918;-81
2022/05/20 11:10:44;;;;;;;;;;;;;;;;;;5020120;28;20353;-81
2022/05/20 11:13:09;;;;;;;;;;;;;;;;;;5004611;28;19964;-83
2022/05/20 11:15:53;;;;;;;;;;;;;;;;;;4987605;28;19917;-82
2022/05/20 11:18:41;;;;;;;;;;;;;;;;;;4990088;28;19918;-82
2022/05/20 11:21:07;;;;;;;;;;;;;;;;;;4989327;28;19944;-82
2022/05/20 11:23:41;;;;;;;;;;;;;;;;;;4990291;28;19921;-83
2022/05/20 11:26:09;;;;;;;;;;;;;;;;;;4987537;28;19921;-84
2022/05/20 11:29:00;;;;;;;;;;;;;;;;;;5001006;28;19923;-85
2022/05/20 11:31:58;;;;;;;;;;;;;;;;;;4987357;28;20355;-83
2022/05/20 11:34:24;;;;;;;;;;;;;;;;;;4965271;28;19917;-87
2022/05/20 11:37:00;;;;;;;;;;;;;;;;;;5002417;28;20369;-87
2022/05/20 11:39:28;;;;;;;;;;;;;;;;;;5018876;28;19943;-87
2022/05/20 11:42:14;;;;;;;;;;;;;;;;;;5020295;28;19921;-87
2022/05/20 11:44:40;;;;;;;;;;;;;;;;;;5021761;28;19917;-84
2022/05/20 11:47:05;;;;;;;;;;;;;;;;;;5039084;28;19917;-82
2022/05/20 11:49:41;;;;;;;;;;;;;;;;;;5006141;28;20348;-83
2022/05/20 11:52:18;;;;;;;;;;;;;;;;;;5002735;28;19940;-79
2022/05/20 11:54:52;;;;;;;;;;;;;;;;;;5013268;28;20286;-79
2022/05/20 11:57:22;;;;;;;;;;;;;;;;;;5022797;28;19917;-78
2022/05/20 11:59:48;;;;;;;;;;;;;;;;;;5001677;28;20379;-77
2022/05/20 12:02:14;;;;;;;;;;;;;;;;;;4993363;28;19924;-77
2022/05/20 12:04:40;;;;;;;;;;;;;;;;;;4996859;28;19917;-77
2022/05/20 12:07:06;;;;;;;;;;;;;;;;;;5006234;28;19923;-77
2022/05/20 12:09:35;;;;;;;;;;;;;;;;;;5015745;28;19980;-77
2022/05/20 12:12:15;;;;;;;;;;;;;;;;;;4996753;28;20319;-77
2022/05/20 12:15:01;;;;;;;;;;;;;;;;;;5016204;28;20017;-77
2022/05/20 12:17:35;;;;;;;;;;;;;;;;;;5014932;28;19918;-75
2022/05/20 12:25:50;;;;;;;;;;;;;;;;;;5011667;28;19921;-75
2022/05/20 12:28:22;;;;;;;;;;;;;;;;;;4998076;28;19925;-75
2022/05/20 12:31:02;;;;;;;;;;;;;;;;;;5014358;28;19923;-74
2022/05/20 12:33:47;;;;;;;;;;;;;;;;;;5015518;28;19924;-74
2022/05/20 12:36:16;;;;;;;;;;;;;;;;;;4995485;28;20406;-75
2022/05/20 12:38:42;;;;;;;;;;;;;;;;;;4994273;28;19918;-74
2022/05/20 12:41:25;;;;;;;;;;;;;;;;;;4995554;28;19914;-75
2022/05/20 12:43:53;;;;;;;;;;;;;;;;;;4996312;28;20331;-74
2022/05/20 12:46:22;;;;;;;;;;;;;;;;;;5014959;28;19922;-75
2022/05/20 12:48:47;;;;;;;;;;;;;;;;;;4997492;28;20331;-74
2022/05/20 12:51:13;;;;;;;;;;;;;;;;;;5014661;28;19961;-75
2022/05/20 12:53:38;;;;;;;;;;;;;;;;;;4969533;28;19928;-75
2022/05/20 12:56:04;;;;;;;;;;;;;;;;;;4995212;28;20448;-74
2022/05/20 12:58:32;;;;;;;;;;;;;;;;;;4995411;28;19972;-76
2022/05/20 13:01:00;;;;;;;;;;;;;;;;;;4995290;28;19932;-75
2022/05/20 13:03:31;;;;;;;;;;;;;;;;;;4994737;28;19918;-75
2022/05/20 13:05:59;;;;;;;;;;;;;;;;;;4977755;28;20372;-75
2022/05/20 13:08:26;;;;;;;;;;;;;;;;;;4977805;28;20283;-76
2022/05/20 13:10:51;;;;;;;;;;;;;;;;;;4994323;28;19917;-75
2022/05/20 13:13:18;;;;;;;;;;;;;;;;;;4953591;28;19925;-75
2022/05/20 13:15:45;;;;;;;;;;;;;;;;;;4994993;28;19925;-75
2022/05/20 13:18:16;;;;;;;;;;;;;;;;;;4994841;28;20281;-75
2022/05/20 13:20:42;;;;;;;;;;;;;;;;;;4994916;28;19964;-75
2022/05/20 13:23:08;;;;;;;;;;;;;;;;;;4961034;28;20000;-75
2022/05/20 13:25:33;;;;;;;;;;;;;;;;;;4977042;28;20402;-76
2022/05/20 13:27:59;;;;;;;;;;;;;;;;;;4977559;28;20356;-75
2022/05/20 13:30:27;;;;;;;;;;;;;;;;;;4976018;28;19926;-75
2022/05/20 13:32:59;;;;;;;;;;;;;;;;;;4993693;28;19925;-75
2022/05/20 13:35:25;;;;;;;;;;;;;;;;;;4975104;28;19921;-75
2022/05/20 13:37:51;;;;;;;;;;;;;;;;;;4975158;28;19925;-76
2022/05/20 13:40:17;;;;;;;;;;;;;;;;;;4958142;28;19918;-75
2022/05/20 13:42:48;;;;;;;;;;;;;;;;;;4975311;28;19929;-75
2022/05/20 13:45:15;;;;;;;;;;;;;;;;;;4976687;28;19965;-75
2022/05/20 13:50:25;;;;;;;;;;;;;;;;;;4973880;28;20372;-76
2022/05/20 13:52:53;;;;;;;;;;;;;;;;;;4990555;28;19937;-75
2022/05/20 13:55:19;;;;;;;;;;;;;;;;;;4976854;28;19921;-75
2022/05/20 13:57:46;;;;;;;;;;;;;;;;;;4993912;28;19917;-75
2022/05/20 14:00:30;;;;;;;;;;;;;;;;;;4976920;28;20392;-75
2022/05/20 14:02:59;;;;;;;;;;;;;;;;;;5000863;28;19917;-79
2022/05/20 14:05:30;;;;;;;;;;;;;;;;;;4983327;28;19935;-79
2022/05/20 14:07:59;;;;;;;;;;;;;;;;;;4969476;28;19918;-79
2022/05/20 14:10:29;;;;;;;;;;;;;;;;;;4985920;28;19921;-78
2022/05/20 14:13:06;;;;;;;;;;;;;;;;;;4987750;28;19918;-78
2022/05/20 14:15:57;;;;;;;;;;;;;;;;;;4968005;28;19918;-79
2022/05/20 14:18:43;;;;;;;;;;;;;;;;;;4956619;28;19922;-79
2022/05/20 14:21:14;;;;;;;;;;;;;;;;;;4952848;28;19925;-79
2022/05/20 14:23:44;;;;;;;;;;;;;;;;;;4970847;28;19918;-79
2022/05/20 14:26:11;;;;;;;;;;;;;;;;;;4972763;28;20291;-79
2022/05/20 14:28:59;;;;;;;;;;;;;;;;;;4972625;28;19917;-79
2022/05/20 14:31:25;;;;;;;;;;;;;;;;;;4980101;28;19922;-79
2022/05/20 14:33:54;;;;;;;;;;;;;;;;;;4987249;28;19918;-79
2022/05/20 14:36:21;;;;;;;;;;;;;;;;;;4988104;28;19961;-78
2022/05/20 14:38:49;;;;;;;;;;;;;;;;;;4989149;28;19918;-79
2022/05/20 14:41:16;;;;;;;;;;;;;;;;;;4970693;28;20547;-78
2022/05/20 14:43:53;;;;;;;;;;;;;;;;;;4970994;28;20372;-79
2022/05/20 14:49:14;;;;;;;;;;;;;;;;;;4970560;28;19922;-79
2022/05/20 14:51:43;;;;;;;;;;;;;;;;;;4970731;28;19974;-79
2022/05/20 14:54:13;;;;;;;;;;;;;;;;;;4969585;28;19933;-78
2022/05/20 14:56:40;;;;;;;;;;;;;;;;;;4969004;28;20510;-78
2022/05/20 14:59:06;;;;;;;;;;;;;;;;;;4969956;28;20372;-78
2022/05/20 15:01:32;;;;;;;;;;;;;;;;;;4968500;28;20414;-78
2022/05/20 15:03:58;;;;;;;;;;;;;;;;;;4968035;28;19925;-78
2022/05/20 15:06:26;;;;;;;;;;;;;;;;;;4987855;28;19925;-78
2022/05/20 15:08:52;;;;;;;;;;;;;;;;;;4986863;28;19918;-78
2022/05/20 15:11:20;;;;;;;;;;;;;;;;;;4983629;28;19924;-78
2022/05/20 15:13:46;;;;;;;;;;;;;;;;;;4991665;28;20016;-78
2022/05/20 15:16:11;;;;;;;;;;;;;;;;;;4988954;28;19964;-78
2022/05/20 15:18:36;;;;;;;;;;;;;;;;;;4987711;28;19918;-78
2022/05/20 15:21:11;;;;;;;;;;;;;;;;;;4972079;28;19918;-78
2022/05/20 15:23:42;;;;;;;;;;;;;;;;;;4986885;28;20624;-78
2022/05/20 15:26:09;;;;;;;;;;;;;;;;;;4971472;28;20015;-80
2022/05/20 15:28:53;;;;;;;;;;;;;;;;;;4984781;28;19925;-82
2022/05/20 15:36:55;;;;;;;;;;;;;;;;;;4977011;28;20012;-83
2022/05/20 15:39:23;;;;;;;;;;;;;;;;;;4964451;28;20428;-81
2022/05/20 15:41:48;;;;;;;;;;;;;;;;;;4962905;28;19914;-80
2022/05/20 15:44:14;;;;;;;;;;;;;;;;;;4962172;28;19918;-81
2022/05/20 15:46:39;;;;;;;;;;;;;;;;;;4947457;28;19922;-82
2022/05/20 15:49:05;;;;;;;;;;;;;;;;;;4966269;28;19918;-83
2022/05/20 15:51:30;;;;;;;;;;;;;;;;;;4964134;28;20328;-83
2022/05/20 15:53:55;;;;;;;;;;;;;;;;;;4973451;28;20283;-83
2022/05/20 15:56:23;;;;;;;;;;;;;;;;;;4979166;28;19979;-83
2022/05/20 15:58:50;;;;;;;;;;;;;;;;;;4979026;28;20407;-84
2022/05/20 16:01:16;;;;;;;;;;;;;;;;;;4979266;28;20343;-84
2022/05/20 16:03:42;;;;;;;;;;;;;;;;;;4978985;28;19924;-84
2022/05/20 16:06:12;;;;;;;;;;;;;;;;;;4994430;28;20012;-83
2022/05/20 16:08:38;;;;;;;;;;;;;;;;;;4991777;28;19917;-81
2022/05/20 16:11:04;;;;;;;;;;;;;;;;;;4985186;28;19944;-83
2022/05/20 16:13:29;;;;;;;;;;;;;;;;;;5011333;28;19972;-82
2022/05/20 16:15:55;;;;;;;;;;;;;;;;;;4981758;28;19964;-84
2022/05/20 16:18:20;;;;;;;;;;;;;;;;;;4996302;28;20441;-84
2022/05/20 16:20:47;;;;;;;;;;;;;;;;;;4981514;28;19918;-84
2022/05/20 16:23:15;;;;;;;;;;;;;;;;;;4989870;28;19918;-83
2022/05/20 16:25:40;;;;;;;;;;;;;;;;;;4998583;28;19922;-83
2022/05/20 16:28:06;;;;;;;;;;;;;;;;;;4966099;28;19922;-83
2022/05/20 16:30:31;;;;;;;;;;;;;;;;;;4981878;28;20359;-83
2022/05/20 16:32:59;;;;;;;;;;;;;;;;;;4996562;28;19918;-84
2022/05/20 16:35:24;;;;;;;;;;;;;;;;;;4964059;28;19956;-83
2022/05/20 16:37:51;;;;;;;;;;;;;;;;;;4987365;28;19917;-84
2022/05/20 16:40:19;;;;;;;;;;;;;;;;;;5015094;28;19913;-84
2022/05/20 16:42:45;;;;;;;;;;;;;;;;;;4965613;28;19918;-81
2022/05/20 16:45:11;;;;;;;;;;;;;;;;;;4996482;28;19958;-80
2022/05/20 16:47:38;;;;;;;;;;;;;;;;;;4982099;28;20016;-81
2022/05/20 16:50:05;;;;;;;;;;;;;;;;;;4982088;28;20052;-81
2022/05/20 16:52:31;;;;;;;;;;;;;;;;;;4981570;28;19917;-80
2022/05/20 16:55:01;;;;;;;;;;;;;;;;;;4965223;28;20347;-79
2022/05/20 17:02:55;;;;;;;;;;;;;;;;;;4962022;28;19972;-79
2022/05/20 17:05:21;;;;;;;;;;;;;;;;;;4961548;28;19922;-80
2022/05/20 17:07:46;;;;;;;;;;;;;;;;;;4962584;28;19918;-81
2022/05/20 17:10:12;;;;;;;;;;;;;;;;;;4988750;28;19976;-80
2022/05/20 17:12:37;;;;;;;;;;;;;;;;;;4981991;28;19925;-81
2022/05/20 17:15:03;;;;;;;;;;;;;;;;;;4965032;28;19940;-78
2022/05/20 17:17:28;;;;;;;;;;;;;;;;;;4997880;28;20441;-80
2022/05/20 17:19:54;;;;;;;;;;;;;;;;;;4981747;28;19921;-80
2022/05/20 17:25:04;;;;;;;;;;;;;;;;;;4998722;28;19925;-79
2022/05/20 17:27:30;;;;;;;;;;;;;;;;;;4980785;28;19918;-80
2022/05/20 17:29:55;;;;;;;;;;;;;;;;;;4997536;28;19924;-81
2022/05/20 17:32:22;;;;;;;;;;;;;;;;;;4966225;28;19922;-80
2022/05/20 17:34:48;;;;;;;;;;;;;;;;;;4981039;28;19918;-80
2022/05/20 17:37:14;;;;;;;;;;;;;;;;;;4964979;28;20252;-79
2022/05/20 17:39:40;;;;;;;;;;;;;;;;;;4980577;28;20004;-79
2022/05/20 17:42:05;;;;;;;;;;;;;;;;;;4964430;28;20388;-79
2022/05/20 17:44:31;;;;;;;;;;;;;;;;;;4997402;28;20256;-79
2022/05/20 17:46:57;;;;;;;;;;;;;;;;;;4965860;28;20383;-79
2022/05/20 17:49:24;;;;;;;;;;;;;;;;;;4981381;28;19930;-79
2022/05/20 17:51:50;;;;;;;;;;;;;;;;;;4965691;28;20012;-81